createdAt,value
2022-12-05T00:00:41.671Z,18.23
2022-12-05T00:03:06.267Z,17.80
2022-12-05T00:05:27.687Z,17.77
2022-12-05T00:07:49.426Z,17.90
2022-12-05T00:10:11.363Z,18.00
2022-12-05T00:12:32.855Z,17.80
2022-12-05T00:14:54.294Z,17.73
2022-12-05T00:17:15.724Z,17.60
2022-12-05T00:19:37.133Z,17.37
2022-12-05T00:21:58.584Z,17.50
2022-12-05T00:24:20.791Z,18.43
2022-12-05T00:26:43.618Z,16.37
2022-12-05T00:29:05.121Z,18.00
2022-12-05T00:31:27.952Z,17.60
2022-12-05T00:33:49.970Z,17.90
2022-12-05T00:36:16.934Z,18.40
2022-12-05T00:38:38.838Z,17.80
2022-12-05T00:41:08.966Z,17.63
2022-12-05T00:43:30.891Z,17.33
2022-12-05T00:45:52.381Z,17.23
2022-12-05T00:48:13.857Z,16.80
2022-12-05T00:50:35.273Z,17.80
2022-12-05T00:52:56.706Z,15.60
2022-12-05T00:55:18.150Z,17.43
2022-12-05T00:57:39.638Z,17.70
2022-12-05T01:00:01.155Z,16.57
2022-12-05T01:02:22.612Z,16.67
2022-12-05T01:04:44.074Z,15.93
2022-12-05T01:07:05.628Z,16.57
2022-12-05T01:09:27.209Z,16.20
2022-12-05T01:11:49.177Z,17.60
2022-12-05T01:14:12.751Z,16.90
2022-12-05T01:16:36.287Z,17.67
2022-12-05T01:18:59.074Z,16.37
2022-12-05T01:21:21.354Z,16.30
2022-12-05T01:23:42.936Z,16.67
2022-12-05T01:26:09.962Z,17.97
2022-12-05T01:28:31.454Z,17.00
2022-12-05T01:30:52.948Z,17.00
2022-12-05T01:33:14.483Z,16.63
2022-12-05T01:35:38.201Z,16.53
2022-12-05T01:37:59.778Z,16.97
2022-12-05T01:40:21.247Z,17.57
2022-12-05T01:42:42.766Z,16.60
2022-12-05T01:45:13.975Z,16.80
2022-12-05T01:47:36.905Z,16.47
2022-12-05T01:50:00.028Z,17.03
2022-12-05T01:52:25.395Z,17.13
2022-12-05T01:54:48.958Z,17.70
2022-12-05T01:57:12.278Z,16.53
2022-12-05T01:59:38.405Z,18.00
2022-12-05T02:02:00.304Z,18.20
2022-12-05T02:04:21.875Z,18.17
2022-12-05T02:06:43.594Z,17.60
2022-12-05T02:09:05.070Z,16.43
2022-12-05T02:11:30.140Z,17.03
2022-12-05T02:14:26.526Z,17.57
2022-12-05T02:16:58.515Z,16.60
2022-12-05T02:19:49.124Z,16.90
2022-12-05T02:22:44.460Z,16.67
2022-12-05T02:25:18.910Z,16.57
2022-12-05T02:27:52.266Z,16.13
2022-12-05T02:30:15.630Z,17.03
2022-12-05T02:32:55.284Z,16.97
2022-12-05T02:35:25.870Z,17.23
2022-12-05T02:38:02.020Z,15.93
2022-12-05T02:40:32.364Z,15.93
2022-12-05T02:42:59.234Z,17.27
2022-12-05T02:45:24.030Z,16.70
2022-12-05T02:47:50.078Z,16.57
2022-12-05T02:50:17.356Z,16.20
2022-12-05T02:52:39.880Z,15.83
2022-12-05T02:55:02.896Z,17.50
2022-12-05T02:57:24.774Z,16.43
2022-12-05T02:59:46.467Z,16.20
2022-12-05T03:02:31.390Z,17.33
2022-12-05T03:04:55.524Z,17.17
2022-12-05T03:07:19.858Z,17.87
2022-12-05T03:09:52.410Z,17.17
2022-12-05T03:12:21.462Z,17.53
2022-12-05T03:15:12.182Z,17.40
2022-12-05T03:17:45.313Z,16.30
2022-12-05T03:20:09.402Z,18.07
2022-12-05T03:22:37.018Z,17.87
2022-12-05T03:25:00.229Z,17.33
2022-12-05T03:27:25.739Z,18.13
2022-12-05T03:30:02.503Z,18.53
2022-12-05T03:32:40.646Z,16.80
2022-12-05T03:35:02.018Z,17.80
2022-12-05T03:37:41.950Z,17.87
2022-12-05T03:40:34.257Z,18.57
2022-12-05T03:43:24.338Z,16.63
2022-12-05T03:46:04.208Z,16.53
2022-12-05T03:48:35.789Z,16.97
2022-12-05T03:50:59.575Z,17.57
2022-12-05T03:53:50.673Z,15.43
2022-12-05T03:56:20.937Z,16.97
2022-12-05T03:58:54.281Z,17.33
2022-12-05T04:01:19.545Z,16.00
2022-12-05T04:03:46.403Z,16.17
2022-12-05T04:06:14.214Z,16.93
2022-12-05T04:08:42.770Z,16.50
2022-12-05T04:11:18.528Z,16.97
2022-12-05T04:13:56.657Z,16.87
2022-12-05T04:16:46.943Z,15.40
2022-12-05T04:19:17.101Z,16.03
2022-12-05T04:21:43.361Z,16.60
2022-12-05T04:24:34.209Z,17.17
2022-12-05T04:27:06.425Z,16.67
2022-12-05T04:29:35.876Z,17.60
2022-12-05T04:32:04.761Z,17.13
2022-12-05T04:34:29.197Z,16.73
2022-12-05T04:36:56.656Z,16.17
2022-12-05T04:39:21.314Z,19.00
2022-12-05T04:41:51.597Z,18.97
2022-12-05T04:44:16.294Z,17.70
2022-12-05T04:46:41.670Z,18.03
2022-12-05T04:49:07.392Z,18.33
2022-12-05T04:51:34.231Z,17.80
2022-12-05T04:54:05.119Z,18.67
2022-12-05T04:56:31.286Z,18.33
2022-12-05T04:58:53.025Z,18.60
2022-12-05T05:01:21.224Z,19.63
2022-12-05T05:03:58.238Z,17.87
2022-12-05T05:06:19.746Z,16.83
2022-12-05T05:08:50.396Z,17.60
2022-12-05T05:11:21.722Z,17.47
2022-12-05T05:13:43.283Z,17.07
2022-12-05T05:16:05.510Z,16.90
2022-12-05T05:18:27.013Z,18.97
2022-12-05T05:20:48.444Z,17.80
2022-12-05T05:23:09.945Z,19.50
2022-12-05T05:25:31.383Z,18.03
2022-12-05T05:27:55.167Z,16.77
2022-12-05T05:30:17.449Z,17.43
2022-12-05T05:32:38.906Z,18.90
2022-12-05T05:35:00.381Z,18.43
2022-12-05T05:37:21.840Z,18.23
2022-12-05T05:39:43.358Z,17.90
2022-12-05T05:42:04.960Z,17.20
2022-12-05T05:44:26.385Z,16.60
2022-12-05T05:46:47.891Z,17.13
2022-12-05T05:49:10.061Z,16.07
2022-12-05T05:51:32.293Z,15.83
2022-12-05T05:53:53.824Z,14.87
2022-12-05T05:56:21.484Z,14.83
2022-12-05T05:58:43.890Z,15.83
2022-12-05T06:01:10.450Z,15.67
2022-12-05T06:03:32.104Z,15.47
2022-12-05T06:05:58.217Z,15.50
2022-12-05T06:08:19.692Z,34.20
2022-12-05T06:10:41.121Z,32.47
2022-12-05T06:13:02.625Z,24.87
2022-12-05T06:15:24.786Z,19.80
2022-12-05T06:17:46.231Z,22.30
2022-12-05T06:20:08.467Z,19.23
2022-12-05T06:22:30.395Z,18.37
2022-12-05T06:24:51.822Z,16.80
2022-12-05T06:27:13.413Z,16.53
2022-12-05T06:29:35.732Z,16.90
2022-12-05T06:31:57.220Z,16.30
2022-12-05T06:34:18.701Z,17.30
2022-12-05T06:36:40.412Z,15.37
2022-12-05T06:39:02.013Z,16.67
2022-12-05T06:41:24.727Z,17.13
2022-12-05T06:43:46.751Z,15.23
2022-12-05T06:46:10.637Z,17.17
2022-12-05T06:48:32.185Z,16.57
2022-12-05T06:50:53.666Z,15.97
2022-12-05T06:53:15.137Z,16.37
2022-12-05T06:55:36.567Z,17.50
2022-12-05T06:57:58.023Z,16.90
2022-12-05T07:00:38.452Z,16.40
2022-12-05T07:02:59.939Z,19.67
2022-12-05T07:05:21.432Z,20.93
2022-12-05T07:07:42.970Z,17.97
2022-12-05T07:10:05.807Z,18.00
2022-12-05T07:12:27.379Z,19.57
2022-12-05T07:14:49.918Z,17.70
2022-12-05T07:17:11.827Z,16.20
2022-12-05T07:19:33.304Z,16.97
2022-12-05T07:21:54.782Z,16.07
2022-12-05T07:24:16.234Z,16.53
2022-12-05T07:26:37.957Z,14.73
2022-12-05T07:28:59.384Z,15.30
2022-12-05T07:31:22.774Z,14.73
2022-12-05T07:33:44.364Z,16.27
2022-12-05T07:36:11.968Z,16.73
2022-12-05T07:38:33.747Z,15.80
2022-12-05T07:40:55.635Z,16.00
2022-12-05T07:43:17.095Z,16.30
2022-12-05T07:45:38.525Z,16.33
2022-12-05T07:48:00.104Z,16.13
2022-12-05T07:50:21.619Z,17.00
2022-12-05T07:52:43.062Z,15.63
2022-12-05T07:55:05.476Z,15.67
2022-12-05T07:57:30.564Z,15.60
2022-12-05T07:59:52.016Z,16.17
2022-12-05T08:02:13.884Z,15.10
2022-12-05T08:04:35.347Z,31.83
2022-12-05T08:06:56.786Z,51.23
2022-12-05T08:09:18.253Z,29.60
2022-12-05T08:11:40.173Z,18.87
2022-12-05T08:14:02.737Z,17.00
2022-12-05T08:16:28.502Z,17.67
2022-12-05T08:18:57.094Z,17.23
2022-12-05T08:21:19.814Z,15.87
2022-12-05T08:23:41.895Z,15.73
2022-12-05T08:26:15.342Z,17.23
2022-12-05T08:28:37.265Z,19.93
2022-12-05T08:31:10.978Z,18.23
2022-12-05T08:33:33.000Z,22.60
2022-12-05T08:35:54.426Z,26.67
2022-12-05T08:38:15.906Z,25.63
2022-12-05T08:40:37.340Z,22.07
2022-12-05T08:42:58.799Z,20.80
2022-12-05T08:45:20.228Z,24.13
2022-12-05T08:47:41.694Z,20.83
2022-12-05T08:50:03.431Z,19.67
2022-12-05T08:52:24.979Z,20.00
2022-12-05T08:54:46.417Z,18.67
2022-12-05T08:57:07.839Z,17.43
2022-12-05T08:59:29.338Z,17.47
2022-12-05T09:01:51.028Z,17.40
2022-12-05T09:04:13.103Z,16.10
2022-12-05T09:06:36.023Z,16.10
2022-12-05T09:08:59.845Z,15.83
2022-12-05T09:11:24.701Z,17.60
2022-12-05T09:13:47.610Z,18.50
2022-12-05T09:16:11.648Z,18.20
2022-12-05T09:18:33.225Z,18.70
2022-12-05T09:20:54.655Z,17.37
2022-12-05T09:23:16.360Z,18.13
2022-12-05T09:25:37.818Z,16.47
2022-12-05T09:27:59.285Z,16.23
2022-12-05T09:30:20.726Z,16.93
2022-12-05T09:32:42.165Z,15.07
2022-12-05T09:35:03.781Z,14.57
2022-12-05T09:37:40.616Z,12.97
2022-12-05T09:40:03.709Z,14.67
2022-12-05T09:42:45.445Z,14.77
2022-12-05T09:45:09.656Z,15.07
2022-12-05T09:47:46.325Z,15.47
2022-12-05T09:50:51.404Z,15.07
2022-12-05T09:53:22.778Z,15.87
2022-12-05T09:55:54.957Z,14.83
2022-12-05T09:58:22.403Z,13.37
2022-12-05T10:00:44.132Z,16.47
2022-12-05T10:03:43.012Z,17.63
2022-12-05T10:06:20.503Z,17.57
2022-12-05T10:08:49.705Z,16.97
2022-12-05T10:11:43.472Z,17.53
2022-12-05T10:14:26.465Z,15.00
2022-12-05T10:16:54.907Z,16.73
2022-12-05T10:19:23.793Z,14.70
2022-12-05T10:21:58.917Z,15.33
2022-12-05T10:24:38.751Z,13.03
2022-12-05T10:27:04.533Z,13.97
2022-12-05T10:29:28.654Z,13.83
2022-12-05T10:31:54.890Z,13.73
2022-12-05T10:34:25.234Z,13.30
2022-12-05T10:36:56.656Z,13.70
2022-12-05T10:39:18.112Z,13.63
2022-12-05T10:41:39.573Z,13.03
2022-12-05T10:44:01.055Z,13.40
2022-12-05T10:46:22.768Z,12.17
2022-12-05T10:48:44.615Z,11.00
2022-12-05T10:51:07.307Z,12.90
2022-12-05T10:53:40.309Z,11.80
2022-12-05T10:56:29.923Z,11.80
2022-12-05T10:58:56.164Z,11.17
2022-12-05T11:01:18.450Z,11.00
2022-12-05T11:03:41.037Z,11.57
2022-12-05T11:06:16.006Z,11.00
2022-12-05T11:09:03.131Z,10.67
2022-12-05T11:11:23.559Z,10.00
2022-12-05T11:13:58.643Z,10.27
2022-12-05T11:16:26.991Z,10.67
2022-12-05T11:18:49.977Z,10.93
2022-12-05T11:21:14.289Z,10.93
2022-12-05T11:23:35.782Z,10.87
2022-12-05T11:25:58.413Z,10.97
2022-12-05T11:28:19.800Z,9.90
2022-12-05T11:30:58.606Z,10.53
2022-12-05T11:33:23.528Z,10.27
2022-12-05T11:35:46.712Z,10.00
2022-12-05T11:38:11.886Z,10.07
2022-12-05T11:40:44.107Z,9.87
2022-12-05T11:43:33.423Z,10.37
2022-12-05T11:46:16.101Z,9.63
2022-12-05T11:49:00.744Z,10.40
2022-12-05T11:52:02.544Z,10.63
2022-12-05T11:55:16.414Z,10.23
2022-12-05T11:57:51.770Z,9.67
2022-12-05T12:00:24.448Z,9.03
2022-12-05T12:02:48.606Z,10.27
2022-12-05T12:05:33.264Z,10.17
2022-12-05T12:08:11.791Z,9.83
2022-12-05T12:10:47.418Z,9.40
2022-12-05T12:13:28.099Z,10.13
2022-12-05T12:16:08.531Z,9.47
2022-12-05T12:18:39.474Z,9.43
2022-12-05T12:21:12.873Z,9.30
2022-12-05T12:23:43.502Z,9.50
2022-12-05T12:26:14.027Z,9.53
2022-12-05T12:28:53.512Z,9.50
2022-12-05T12:31:26.274Z,10.27
2022-12-05T12:33:57.496Z,10.77
2022-12-05T12:36:25.791Z,9.33
2022-12-05T12:38:56.269Z,9.40
2022-12-05T12:41:36.187Z,9.70
2022-12-05T12:44:06.636Z,9.43
2022-12-05T12:46:49.494Z,9.20
2022-12-05T12:49:25.974Z,9.60
2022-12-05T12:52:22.009Z,10.17
2022-12-05T12:55:12.953Z,9.97
2022-12-05T12:57:59.972Z,9.77
2022-12-05T13:00:42.987Z,9.27
2022-12-05T13:03:13.722Z,10.13
2022-12-05T13:05:44.291Z,9.93
2022-12-05T13:08:16.616Z,10.10
2022-12-05T13:10:43.059Z,9.50
2022-12-05T13:13:07.172Z,10.80
2022-12-05T13:15:41.004Z,10.60
2022-12-05T13:18:05.118Z,10.23
2022-12-05T13:20:30.614Z,11.27
2022-12-05T13:22:53.661Z,10.57
2022-12-05T13:25:16.554Z,10.80
2022-12-05T13:27:38.073Z,11.00
2022-12-05T13:30:02.700Z,11.23
2022-12-05T13:32:34.864Z,13.23
2022-12-05T13:35:02.087Z,13.83
2022-12-05T13:37:52.083Z,13.83
2022-12-05T13:40:44.246Z,14.03
2022-12-05T13:43:05.967Z,12.60
2022-12-05T13:45:28.144Z,11.90
2022-12-05T13:48:09.926Z,11.00
2022-12-05T13:50:43.234Z,11.23
2022-12-05T13:53:19.459Z,11.27
2022-12-05T13:56:02.162Z,10.50
2022-12-05T13:58:23.554Z,11.07
2022-12-05T14:00:45.373Z,10.97
2022-12-05T14:03:16.054Z,10.77
2022-12-05T14:06:03.909Z,11.17
2022-12-05T14:08:31.507Z,11.17
2022-12-05T14:10:52.853Z,11.70
2022-12-05T14:13:35.299Z,11.23
2022-12-05T14:16:22.553Z,12.17
2022-12-05T14:18:52.911Z,12.03
2022-12-05T14:21:21.672Z,12.73
2022-12-05T14:24:17.230Z,11.80
2022-12-05T14:26:57.118Z,12.50
2022-12-05T14:29:27.739Z,12.43
2022-12-05T14:32:09.425Z,11.70
2022-12-05T14:34:36.495Z,12.30
2022-12-05T14:37:02.864Z,12.80
2022-12-05T14:39:30.876Z,12.37
2022-12-05T14:42:01.439Z,12.00
2022-12-05T14:44:23.896Z,12.50
2022-12-05T14:46:45.699Z,12.53
2022-12-05T14:49:37.684Z,13.60
2022-12-05T14:52:00.820Z,18.87
2022-12-05T14:54:23.875Z,19.90
2022-12-05T14:56:52.765Z,20.60
2022-12-05T14:59:32.057Z,19.67
2022-12-05T15:01:59.868Z,17.00
2022-12-05T15:04:31.265Z,16.53
2022-12-05T15:06:57.624Z,16.13
2022-12-05T15:09:37.350Z,13.90
2022-12-05T15:12:04.857Z,12.63
2022-12-05T15:14:37.429Z,12.40
2022-12-05T15:17:00.124Z,13.63
2022-12-05T15:19:41.836Z,14.13
2022-12-05T15:22:07.663Z,12.47
2022-12-05T15:24:37.874Z,13.60
2022-12-05T15:27:03.999Z,11.17
2022-12-05T15:29:28.174Z,11.53
2022-12-05T15:31:55.885Z,10.80
2022-12-05T15:34:22.244Z,11.77
2022-12-05T15:36:51.067Z,10.43
2022-12-05T15:39:28.700Z,11.13
2022-12-05T15:41:51.771Z,10.97
2022-12-05T15:44:13.230Z,11.33
2022-12-05T15:46:36.375Z,22.73
2022-12-05T15:49:00.446Z,24.63
2022-12-05T15:51:29.263Z,13.47
2022-12-05T15:54:00.473Z,11.60
2022-12-05T15:56:29.000Z,15.80
2022-12-05T15:59:05.767Z,20.60
2022-12-05T16:01:27.387Z,18.70
2022-12-05T16:04:01.621Z,24.57
2022-12-05T16:06:46.357Z,27.47
2022-12-05T16:09:13.689Z,31.07
2022-12-05T16:11:35.897Z,39.83
2022-12-05T16:14:01.238Z,36.43
2022-12-05T16:16:25.773Z,34.50
2022-12-05T16:18:54.723Z,34.63
2022-12-05T16:22:07.278Z,25.70
2022-12-05T16:24:33.298Z,28.57
2022-12-05T16:26:59.309Z,25.00
2022-12-05T16:29:32.103Z,23.37
2022-12-05T16:32:05.870Z,20.43
2022-12-05T16:34:29.694Z,26.37
2022-12-05T16:36:53.121Z,25.63
2022-12-05T16:39:19.358Z,23.43
2022-12-05T16:41:41.815Z,18.77
2022-12-05T16:44:09.411Z,17.03
2022-12-05T16:46:36.809Z,17.33
2022-12-05T16:49:30.278Z,15.37
2022-12-05T16:52:15.377Z,16.30
2022-12-05T16:54:36.808Z,14.30
2022-12-05T16:57:00.249Z,14.00
2022-12-05T16:59:32.327Z,14.20
2022-12-05T17:01:53.919Z,16.30
2022-12-05T17:04:15.553Z,21.40
2022-12-05T17:06:37.020Z,22.77
2022-12-05T17:08:59.162Z,22.23
2022-12-05T17:11:24.708Z,22.23
2022-12-05T17:13:48.436Z,24.10
2022-12-05T17:16:09.932Z,25.10
2022-12-05T17:18:32.278Z,20.13
2022-12-05T17:20:55.929Z,20.30
2022-12-05T17:23:17.711Z,14.43
2022-12-05T17:25:43.121Z,14.20
2022-12-05T17:28:04.603Z,13.13
2022-12-05T17:30:26.018Z,13.87
2022-12-05T17:32:47.473Z,12.47
2022-12-05T17:35:17.104Z,11.57
2022-12-05T17:37:38.550Z,11.47
2022-12-05T17:40:00.164Z,15.03
2022-12-05T17:42:21.789Z,17.63
2022-12-05T17:44:43.288Z,19.17
2022-12-05T17:47:08.326Z,13.20
2022-12-05T17:49:29.987Z,13.47
2022-12-05T17:52:20.621Z,12.30
2022-12-05T17:54:35.420Z,20.97
2022-12-05T17:56:56.914Z,16.10
2022-12-05T17:59:18.376Z,9.53
2022-12-05T18:01:39.844Z,6.87
2022-12-05T18:04:01.289Z,6.27
2022-12-05T18:06:22.777Z,6.03
2022-12-05T18:08:45.270Z,5.20
2022-12-05T18:11:06.968Z,4.60
2022-12-05T18:13:28.409Z,3.83
2022-12-05T18:15:57.060Z,5.13
2022-12-05T18:18:18.815Z,5.40
2022-12-05T18:20:40.269Z,5.17
2022-12-05T18:23:03.028Z,4.23
2022-12-05T18:25:24.564Z,4.20
2022-12-05T18:27:46.024Z,3.60
2022-12-05T18:30:08.329Z,3.53
2022-12-05T18:32:29.798Z,3.70
2022-12-05T18:34:51.503Z,3.83
2022-12-05T18:37:13.719Z,3.80
2022-12-05T18:39:35.133Z,3.80
2022-12-05T18:41:56.665Z,3.67
2022-12-05T18:44:18.075Z,3.50
2022-12-05T18:46:39.533Z,3.57
2022-12-05T18:49:03.526Z,3.10
2022-12-05T18:51:25.294Z,3.00
2022-12-05T18:53:52.247Z,3.30
2022-12-05T18:56:23.096Z,3.30
2022-12-05T18:58:45.865Z,3.60
2022-12-05T19:01:14.559Z,3.73
2022-12-05T19:03:37.080Z,3.60
2022-12-05T19:05:58.517Z,3.73
2022-12-05T19:08:21.613Z,3.70
2022-12-05T19:10:43.075Z,4.00
2022-12-05T19:13:04.546Z,3.80
2022-12-05T19:15:26.127Z,3.87
2022-12-05T19:17:47.798Z,4.17
2022-12-05T19:20:09.691Z,3.73
2022-12-05T19:22:31.361Z,4.03
2022-12-05T19:24:53.120Z,3.70
2022-12-05T19:27:15.365Z,4.30
2022-12-05T19:29:36.844Z,3.60
2022-12-05T19:31:58.369Z,3.90
2022-12-05T19:34:20.018Z,3.97
2022-12-05T19:36:44.267Z,3.77
2022-12-05T19:39:15.701Z,3.53
2022-12-05T19:41:37.489Z,3.67
2022-12-05T19:43:59.952Z,3.70
2022-12-05T19:46:24.980Z,3.40
2022-12-05T19:48:47.714Z,3.40
2022-12-05T19:51:09.300Z,3.20
2022-12-05T19:53:33.640Z,3.40
2022-12-05T19:56:14.797Z,2.93
2022-12-05T19:58:37.063Z,2.90
2022-12-05T20:01:10.314Z,2.17
2022-12-05T20:03:31.791Z,2.50
2022-12-05T20:05:57.861Z,2.50
2022-12-05T20:08:19.404Z,2.80
2022-12-05T20:10:40.911Z,2.60
2022-12-05T20:13:05.422Z,3.20
2022-12-05T20:15:27.139Z,2.70
2022-12-05T20:17:52.983Z,2.03
2022-12-05T20:20:14.795Z,2.67
2022-12-05T20:22:36.472Z,2.30
2022-12-05T20:24:57.914Z,2.10
2022-12-05T20:27:19.373Z,2.30
2022-12-05T20:29:41.453Z,2.10
2022-12-05T20:32:03.361Z,2.23
2022-12-05T20:34:24.779Z,2.30
2022-12-05T20:36:46.240Z,2.20
2022-12-05T20:39:12.428Z,2.00
2022-12-05T20:41:34.449Z,2.27
2022-12-05T20:43:58.436Z,2.00
2022-12-05T20:46:20.852Z,2.63
2022-12-05T20:48:43.168Z,2.60
2022-12-05T20:51:07.437Z,2.57
2022-12-05T20:53:29.039Z,2.87
2022-12-05T20:55:50.785Z,2.70
2022-12-05T20:58:12.442Z,2.70
2022-12-05T21:00:33.889Z,3.17
2022-12-05T21:02:56.700Z,3.13
2022-12-05T21:05:18.351Z,2.63
2022-12-05T21:07:40.128Z,2.87
2022-12-05T21:10:07.739Z,3.00
2022-12-05T21:12:29.773Z,3.03
2022-12-05T21:14:52.515Z,3.10
2022-12-05T21:17:14.027Z,2.77
2022-12-05T21:19:35.516Z,3.00
2022-12-05T21:21:57.018Z,3.10
2022-12-05T21:24:18.476Z,2.73
2022-12-05T21:26:40.056Z,3.07
2022-12-05T21:29:02.713Z,3.20
2022-12-05T21:31:36.608Z,3.70
2022-12-05T21:34:00.743Z,3.93
2022-12-05T21:36:23.576Z,3.20
2022-12-05T21:38:47.434Z,3.90
2022-12-05T21:41:12.375Z,3.53
2022-12-05T21:43:35.339Z,3.87
2022-12-05T21:45:57.022Z,4.10
2022-12-05T21:48:19.550Z,4.20
2022-12-05T21:50:42.074Z,4.37
2022-12-05T21:53:03.528Z,4.17
2022-12-05T21:55:25.054Z,4.77
2022-12-05T21:57:46.555Z,4.83
2022-12-05T22:00:09.814Z,4.77
2022-12-05T22:02:31.283Z,4.67
2022-12-05T22:04:52.756Z,4.20
2022-12-05T22:07:14.285Z,4.40
2022-12-05T22:09:35.769Z,5.33
2022-12-05T22:11:57.251Z,4.83
2022-12-05T22:14:18.726Z,5.23
2022-12-05T22:16:40.246Z,5.10
2022-12-05T22:19:02.686Z,5.17
2022-12-05T22:21:25.048Z,5.07
2022-12-05T22:23:47.814Z,5.13
2022-12-05T22:26:11.658Z,5.03
2022-12-05T22:28:34.478Z,5.27
2022-12-05T22:30:57.328Z,5.70
2022-12-05T22:33:18.793Z,5.57
2022-12-05T22:35:40.231Z,5.50
2022-12-05T22:38:01.685Z,5.60
2022-12-05T22:40:23.109Z,5.70
2022-12-05T22:42:44.543Z,5.23
2022-12-05T22:45:07.019Z,5.73
2022-12-05T22:47:28.475Z,5.33
2022-12-05T22:49:49.892Z,5.10
2022-12-05T22:52:11.378Z,5.30
2022-12-05T22:54:32.799Z,5.40
2022-12-05T22:56:54.238Z,5.30
2022-12-05T22:59:15.742Z,5.63
2022-12-05T23:01:37.243Z,5.80
2022-12-05T23:04:04.693Z,5.93
2022-12-05T23:06:27.152Z,5.10
2022-12-05T23:08:49.000Z,5.73
2022-12-05T23:11:11.361Z,5.30
2022-12-05T23:13:34.606Z,5.30
2022-12-05T23:15:56.137Z,5.30
2022-12-05T23:18:17.658Z,5.33
2022-12-05T23:20:39.123Z,5.83
2022-12-05T23:23:00.612Z,5.63
2022-12-05T23:25:22.095Z,5.40
2022-12-05T23:27:44.035Z,5.90
2022-12-05T23:30:06.484Z,5.63
2022-12-05T23:32:27.975Z,5.50
2022-12-05T23:34:49.455Z,5.83
2022-12-05T23:37:10.992Z,6.10
2022-12-05T23:39:32.507Z,6.67
2022-12-05T23:41:54.487Z,5.50
2022-12-05T23:44:15.956Z,6.67
2022-12-05T23:46:37.513Z,6.30
2022-12-05T23:48:59.359Z,6.27
2022-12-05T23:51:23.373Z,6.80
2022-12-05T23:53:47.047Z,6.90
2022-12-05T23:56:12.873Z,6.27
2022-12-05T23:58:34.464Z,6.57
